createdAt,value
2023-01-05T00:03:09.627Z,140.80511
2023-01-05T00:08:10.571Z,144.65147
2023-01-05T00:13:11.481Z,145.30719
2023-01-05T00:18:12.501Z,142.70968
2023-01-05T00:23:13.479Z,144.0
2023-01-05T00:28:14.470Z,143.35275
2023-01-05T00:33:15.492Z,143.35275
2023-01-05T00:38:16.487Z,141.4359
2023-01-05T00:43:17.407Z,142.07074
2023-01-05T00:48:18.465Z,142.07074
2023-01-05T00:53:19.359Z,142.70968
2023-01-05T00:58:20.292Z,144.0
2023-01-05T01:03:21.299Z,144.0
2023-01-05T01:08:22.260Z,146.63158
2023-01-05T01:13:23.192Z,144.65147
2023-01-05T01:18:24.164Z,145.30719
2023-01-05T01:23:25.078Z,142.07074
2023-01-05T01:28:26.086Z,144.0
2023-01-05T01:33:27.004Z,141.4359
2023-01-05T01:38:28.003Z,138.93671
2023-01-05T01:43:29.366Z,140.80511
2023-01-05T01:48:30.350Z,141.4359
2023-01-05T01:53:31.458Z,140.80511
2023-01-05T01:58:32.456Z,140.80511
2023-01-05T02:03:33.412Z,141.4359
2023-01-05T02:08:34.469Z,144.0
2023-01-05T02:13:35.435Z,143.35275
2023-01-05T02:18:36.388Z,144.0
2023-01-05T02:23:37.346Z,145.30719
2023-01-05T02:28:38.391Z,142.70968
2023-01-05T02:33:39.345Z,145.30719
2023-01-05T02:38:40.292Z,144.0
2023-01-05T02:43:41.228Z,144.65147
2023-01-05T02:48:42.253Z,145.30719
2023-01-05T02:53:43.273Z,145.30719
2023-01-05T02:58:44.249Z,140.17834
2023-01-05T03:03:45.286Z,145.96721
2023-01-05T03:08:46.250Z,145.96721
2023-01-05T03:13:47.180Z,149.33333
2023-01-05T03:18:48.216Z,148.65116
2023-01-05T03:23:49.153Z,147.30033
2023-01-05T03:28:50.154Z,147.97351
2023-01-05T03:33:51.089Z,147.30033
2023-01-05T03:38:52.041Z,148.65116
2023-01-05T03:43:52.996Z,145.96721
2023-01-05T03:48:53.952Z,148.65116
2023-01-05T03:53:54.900Z,148.65116
2023-01-05T03:58:55.816Z,149.33333
2023-01-05T04:03:56.788Z,147.97351
2023-01-05T04:08:57.772Z,146.63158
2023-01-05T04:13:58.786Z,145.30719
2023-01-05T04:18:59.733Z,146.63158
2023-01-05T04:24:00.649Z,145.30719
2023-01-05T04:29:01.734Z,147.30033
2023-01-05T04:34:02.698Z,144.65147
2023-01-05T04:39:03.672Z,145.30719
2023-01-05T04:44:04.640Z,145.30719
2023-01-05T04:49:05.586Z,144.65147
2023-01-05T04:54:06.548Z,144.0
2023-01-05T04:59:07.576Z,142.70968
2023-01-05T05:04:08.507Z,137.71069
2023-01-05T05:09:09.469Z,136.5
2023-01-05T05:14:10.377Z,135.90031
2023-01-05T05:19:11.300Z,135.90031
2023-01-05T05:24:12.234Z,132.3792
2023-01-05T05:29:13.233Z,131.23404
2023-01-05T05:34:14.188Z,130.66667
2023-01-05T05:39:15.133Z,128.98498
2023-01-05T05:44:16.093Z,130.10272
2023-01-05T05:49:17.019Z,132.3792
2023-01-05T05:54:17.954Z,134.12346
2023-01-05T05:59:18.889Z,134.12346
2023-01-05T06:04:19.836Z,134.12346
2023-01-05T06:09:20.905Z,139.55556
2023-01-05T06:14:21.974Z,137.10345
2023-01-05T06:19:22.916Z,135.90031
2023-01-05T06:24:23.842Z,137.10345
2023-01-05T06:29:24.825Z,131.23404
2023-01-05T06:34:25.759Z,126.24852
2023-01-05T06:39:26.712Z,125.71091
2023-01-05T06:44:27.643Z,131.23404
2023-01-05T06:49:28.970Z,134.12346
2023-01-05T06:54:30.210Z,134.71207
2023-01-05T06:59:31.199Z,137.71069
2023-01-05T07:04:32.283Z,135.30435
2023-01-05T07:09:33.240Z,134.12346
2023-01-05T07:14:34.172Z,137.10345
2023-01-05T07:19:35.108Z,142.70968
2023-01-05T07:24:36.055Z,138.93671
2023-01-05T07:29:37.049Z,143.35275
2023-01-05T07:34:37.995Z,140.17834
2023-01-05T07:39:38.975Z,143.35275
2023-01-05T07:44:40.038Z,144.65147
2023-01-05T07:49:40.984Z,142.70968
2023-01-05T07:54:42.000Z,144.65147
2023-01-05T07:59:42.991Z,145.30719
2023-01-05T08:04:44.039Z,144.65147
2023-01-05T08:09:45.034Z,146.63158
2023-01-05T08:14:46.004Z,150.71141
2023-01-05T08:19:46.997Z,145.96721
2023-01-05T08:24:47.971Z,148.65116
2023-01-05T08:29:48.957Z,151.40741
2023-01-05T08:34:55.221Z,155.68385
2023-01-05T08:39:56.592Z,157.14879
2023-01-05T08:44:57.552Z,150.02007
2023-01-05T08:49:58.666Z,150.71141
2023-01-05T08:54:59.687Z,154.23891
2023-01-05T09:00:00.639Z,151.40741
2023-01-05T09:05:01.584Z,157.88889
2023-01-05T09:10:02.533Z,160.14035
2023-01-05T09:15:03.480Z,162.43972
2023-01-05T09:20:04.433Z,164.78853
2023-01-05T09:25:05.385Z,163.21708
2023-01-05T09:30:06.356Z,165.58273
2023-01-05T09:35:07.308Z,168.0
2023-01-05T09:40:08.276Z,158.63415
2023-01-05T09:45:09.237Z,158.63415
2023-01-05T09:50:10.227Z,168.81752
2023-01-05T09:55:11.170Z,160.14035
2023-01-05T10:00:12.162Z,157.88889
2023-01-05T10:05:13.167Z,162.43972
2023-01-05T10:10:14.206Z,157.88889
2023-01-05T10:15:15.155Z,164.78853
2023-01-05T10:20:16.145Z,158.63415
2023-01-05T10:25:17.501Z,162.43972
2023-01-05T10:30:18.667Z,165.58273
2023-01-05T10:35:34.265Z,166.38267
2023-01-05T10:40:51.678Z,163.21708
2023-01-05T10:46:28.757Z,170.47059
2023-01-05T10:51:31.962Z,169.64103
2023-01-05T10:56:32.941Z,172.99628
2023-01-05T11:01:34.021Z,173.85075
2023-01-05T11:06:35.030Z,168.0
2023-01-05T11:11:35.945Z,169.64103
2023-01-05T11:16:36.883Z,171.30627
2023-01-05T11:21:37.943Z,170.47059
2023-01-05T11:26:39.004Z,168.81752
2023-01-05T11:31:39.973Z,168.0
2023-01-05T11:36:40.942Z,168.0
2023-01-05T11:41:41.896Z,174.71161
2023-01-05T11:46:42.958Z,173.85075
2023-01-05T11:51:43.965Z,167.18841
2023-01-05T11:56:44.973Z,164.0
2023-01-05T12:01:45.996Z,164.78853
2023-01-05T12:06:47.264Z,169.64103
2023-01-05T12:11:48.214Z,170.47059
2023-01-05T12:16:49.240Z,171.30627
2023-01-05T12:21:50.266Z,167.18841
2023-01-05T12:26:51.292Z,168.0
2023-01-05T12:37:23.351Z,166.38267
2023-01-05T12:42:24.604Z,170.47059
2023-01-05T12:47:25.531Z,168.81752
2023-01-05T12:52:26.473Z,167.18841
2023-01-05T12:57:27.419Z,168.0
2023-01-05T13:02:28.472Z,164.0
2023-01-05T13:07:29.837Z,164.78853
2023-01-05T13:12:31.008Z,166.38267
2023-01-05T13:17:31.932Z,166.38267
2023-01-05T13:22:32.856Z,168.81752
2023-01-05T13:27:33.770Z,165.58273
2023-01-05T13:32:34.843Z,167.18841
2023-01-05T13:37:35.928Z,160.14035
2023-01-05T13:42:36.941Z,166.38267
2023-01-05T13:47:45.277Z,171.30627
2023-01-05T13:52:51.724Z,163.21708
2023-01-05T13:57:52.648Z,157.14879
2023-01-05T14:02:53.616Z,154.23891
2023-01-05T14:07:54.595Z,154.23891
2023-01-05T14:12:55.550Z,150.71141
2023-01-05T14:17:56.498Z,148.65116
2023-01-05T14:22:57.436Z,147.97351
2023-01-05T14:27:58.395Z,145.96721
2023-01-05T14:32:59.388Z,148.65116
2023-01-05T14:38:00.406Z,145.30719
2023-01-05T14:43:01.389Z,142.07074
2023-01-05T14:48:02.375Z,142.70968
2023-01-05T14:53:03.316Z,141.4359
2023-01-05T14:58:04.266Z,144.0
2023-01-05T15:03:05.563Z,144.0
2023-01-05T15:08:06.603Z,148.65116
2023-01-05T15:13:07.560Z,150.02007
2023-01-05T15:18:08.472Z,150.02007
2023-01-05T15:23:09.449Z,157.14879
2023-01-05T15:28:10.479Z,158.63415
2023-01-05T15:33:11.531Z,157.88889
2023-01-05T15:38:12.472Z,152.10811
2023-01-05T15:43:13.421Z,150.02007
2023-01-05T15:48:14.381Z,153.52381
2023-01-05T15:53:15.366Z,154.9589
2023-01-05T15:58:16.306Z,152.10811
2023-01-05T16:03:17.367Z,150.71141
2023-01-05T16:08:18.368Z,153.52381
2023-01-05T16:13:19.341Z,149.33333
2023-01-05T16:18:20.316Z,151.40741
2023-01-05T16:23:21.280Z,150.02007
2023-01-05T16:28:22.242Z,145.30719
2023-01-05T16:33:23.203Z,144.65147
2023-01-05T16:38:24.148Z,146.63158
2023-01-05T16:43:25.096Z,147.97351
2023-01-05T16:48:31.264Z,147.97351
2023-01-05T16:53:32.253Z,157.14879
2023-01-05T16:58:33.183Z,152.81356
2023-01-05T17:03:34.098Z,153.52381
2023-01-05T17:08:35.028Z,150.02007
2023-01-05T17:13:41.079Z,147.97351
2023-01-05T17:18:42.021Z,147.97351
2023-01-05T17:23:42.934Z,150.71141
2023-01-05T17:28:43.879Z,152.10811
2023-01-05T17:33:44.821Z,147.30033
2023-01-05T17:38:46.673Z,144.65147
2023-01-05T17:43:48.335Z,146.63158
2023-01-05T17:48:49.259Z,148.65116
2023-01-05T17:53:50.171Z,149.33333
2023-01-05T17:58:51.152Z,150.71141
2023-01-05T18:03:52.100Z,150.71141
2023-01-05T18:08:53.102Z,149.33333
2023-01-05T18:13:54.145Z,148.65116
2023-01-05T18:18:55.200Z,146.63158
2023-01-05T18:23:56.202Z,144.65147
2023-01-05T18:28:57.164Z,145.96721
2023-01-05T18:33:58.110Z,145.96721
2023-01-05T18:38:59.074Z,147.30033
2023-01-05T18:44:00.106Z,145.96721
2023-01-05T18:49:01.224Z,147.30033
2023-01-05T18:54:02.198Z,146.63158
2023-01-05T18:59:03.174Z,144.65147
2023-01-05T19:04:04.118Z,144.0
2023-01-05T19:09:05.091Z,142.07074
2023-01-05T19:14:06.063Z,142.70968
2023-01-05T19:19:07.003Z,142.70968
2023-01-05T19:24:08.000Z,142.07074
2023-01-05T19:29:10.620Z,143.35275
2023-01-05T19:34:11.643Z,144.0
2023-01-05T19:39:12.666Z,143.35275
2023-01-05T19:44:13.638Z,143.35275
2023-01-05T19:49:14.642Z,143.35275
2023-01-05T19:54:15.607Z,143.35275
2023-01-05T19:59:16.632Z,144.65147
2023-01-05T20:04:17.603Z,147.97351
2023-01-05T20:09:18.593Z,147.30033
2023-01-05T20:14:19.537Z,145.30719
2023-01-05T20:19:20.525Z,142.70968
2023-01-05T20:24:21.460Z,141.4359
2023-01-05T20:29:22.423Z,140.17834
2023-01-05T20:34:23.438Z,140.80511
2023-01-05T20:39:24.394Z,140.80511
2023-01-05T20:44:25.370Z,142.07074
2023-01-05T20:49:26.432Z,142.07074
2023-01-05T20:54:27.422Z,142.07074
2023-01-05T20:59:28.369Z,142.07074
2023-01-05T21:04:29.673Z,142.70968
2023-01-05T21:09:30.984Z,142.70968
2023-01-05T21:14:31.969Z,142.70968
2023-01-05T21:19:32.934Z,143.35275
2023-01-05T21:24:33.863Z,145.30719
2023-01-05T21:29:34.838Z,145.96721
2023-01-05T21:34:35.827Z,144.65147
2023-01-05T21:39:36.832Z,144.0
2023-01-05T21:44:37.810Z,144.65147
2023-01-05T21:49:38.839Z,144.65147
2023-01-05T21:54:39.793Z,145.30719
2023-01-05T21:59:40.751Z,145.30719
2023-01-05T22:04:41.731Z,145.30719
2023-01-05T22:09:42.686Z,144.0
2023-01-05T22:14:43.612Z,142.70968
2023-01-05T22:19:44.648Z,142.07074
2023-01-05T22:24:45.583Z,142.07074
2023-01-05T22:29:46.531Z,141.4359
2023-01-05T22:34:47.512Z,140.80511
2023-01-05T22:39:48.463Z,140.80511
2023-01-05T22:44:49.399Z,141.4359
2023-01-05T22:49:50.335Z,140.80511
2023-01-05T22:54:51.265Z,140.17834
2023-01-05T22:59:52.222Z,139.55556
2023-01-05T23:04:53.175Z,138.93671
2023-01-05T23:09:54.118Z,138.93671
2023-01-05T23:14:55.104Z,139.55556
2023-01-05T23:19:56.069Z,138.93671
2023-01-05T23:24:56.982Z,139.55556
2023-01-05T23:29:57.983Z,139.55556
2023-01-05T23:34:59.009Z,138.93671
2023-01-05T23:39:59.997Z,138.32177
2023-01-05T23:45:00.983Z,137.71069
2023-01-05T23:50:01.962Z,136.5
2023-01-05T23:55:02.885Z,134.12346
